sensor_id;sensor_type;location;lat;lon;timestamp;P1;durP1;ratioP1;P2;durP2;ratioP2
31808;SDS011;18379;48.208;-1.518;2023-01-26T00:02:31;98.17;;;57.33;;
31808;SDS011;18379;48.208;-1.518;2023-01-26T00:07:32;99.90;;;49.23;;
31808;SDS011;18379;48.208;-1.518;2023-01-26T00:12:33;99.77;;;48.03;;
31808;SDS011;18379;48.208;-1.518;2023-01-26T00:17:33;89.83;;;44.90;;
31808;SDS011;18379;48.208;-1.518;2023-01-26T00:22:37;93.60;;;50.93;;
31808;SDS011;18379;48.208;-1.518;2023-01-26T00:27:38;93.63;;;48.87;;
31808;SDS011;18379;48.208;-1.518;2023-01-26T00:32:38;91.30;;;44.73;;
31808;SDS011;18379;48.208;-1.518;2023-01-26T00:37:40;100.87;;;47.07;;
31808;SDS011;18379;48.208;-1.518;2023-01-26T00:42:41;93.27;;;44.90;;
31808;SDS011;18379;48.208;-1.518;2023-01-26T00:47:42;98.20;;;44.53;;
31808;SDS011;18379;48.208;-1.518;2023-01-26T00:52:43;107.23;;;52.87;;
31808;SDS011;18379;48.208;-1.518;2023-01-26T00:57:44;104.83;;;46.67;;
31808;SDS011;18379;48.208;-1.518;2023-01-26T01:02:45;93.13;;;44.43;;
31808;SDS011;18379;48.208;-1.518;2023-01-26T01:07:46;93.37;;;44.60;;
31808;SDS011;18379;48.208;-1.518;2023-01-26T01:12:47;115.17;;;48.40;;
31808;SDS011;18379;48.208;-1.518;2023-01-26T01:17:48;94.07;;;46.10;;
31808;SDS011;18379;48.208;-1.518;2023-01-26T01:22:49;102.27;;;44.83;;
31808;SDS011;18379;48.208;-1.518;2023-01-26T01:27:51;72.80;;;41.33;;
31808;SDS011;18379;48.208;-1.518;2023-01-26T01:32:52;80.53;;;42.43;;
31808;SDS011;18379;48.208;-1.518;2023-01-26T01:37:52;88.30;;;44.10;;
31808;SDS011;18379;48.208;-1.518;2023-01-26T01:42:53;68.00;;;40.97;;
31808;SDS011;18379;48.208;-1.518;2023-01-26T01:47:58;87.00;;;43.83;;
31808;SDS011;18379;48.208;-1.518;2023-01-26T01:53:04;90.20;;;45.40;;
31808;SDS011;18379;48.208;-1.518;2023-01-26T01:58:07;95.60;;;48.07;;
31808;SDS011;18379;48.208;-1.518;2023-01-26T02:03:09;75.37;;;44.27;;
31808;SDS011;18379;48.208;-1.518;2023-01-26T02:08:10;93.43;;;44.23;;
31808;SDS011;18379;48.208;-1.518;2023-01-26T02:13:14;89.13;;;43.17;;
31808;SDS011;18379;48.208;-1.518;2023-01-26T02:18:17;100.97;;;46.47;;
31808;SDS011;18379;48.208;-1.518;2023-01-26T02:28:49;81.53;;;42.30;;
31808;SDS011;18379;48.208;-1.518;2023-01-26T02:33:51;92.27;;;42.53;;
31808;SDS011;18379;48.208;-1.518;2023-01-26T02:38:56;80.67;;;40.30;;
31808;SDS011;18379;48.208;-1.518;2023-01-26T02:44:16;82.43;;;46.43;;
31808;SDS011;18379;48.208;-1.518;2023-01-26T02:49:17;78.80;;;40.23;;
31808;SDS011;18379;48.208;-1.518;2023-01-26T02:54:36;78.00;;;42.73;;
31808;SDS011;18379;48.208;-1.518;2023-01-26T02:59:56;70.90;;;41.77;;
31808;SDS011;18379;48.208;-1.518;2023-01-26T03:04:57;72.33;;;41.43;;
31808;SDS011;18379;48.208;-1.518;2023-01-26T03:09:58;80.43;;;41.63;;
31808;SDS011;18379;48.208;-1.518;2023-01-26T03:14:58;76.63;;;42.17;;
31808;SDS011;18379;48.208;-1.518;2023-01-26T03:20:18;73.70;;;37.33;;
31808;SDS011;18379;48.208;-1.518;2023-01-26T03:25:37;67.63;;;37.07;;
31808;SDS011;18379;48.208;-1.518;2023-01-26T03:30:56;81.17;;;39.60;;
31808;SDS011;18379;48.208;-1.518;2023-01-26T03:35:57;89.50;;;40.97;;
31808;SDS011;18379;48.208;-1.518;2023-01-26T03:40:58;66.77;;;39.13;;
31808;SDS011;18379;48.208;-1.518;2023-01-26T03:46:18;78.33;;;36.47;;
31808;SDS011;18379;48.208;-1.518;2023-01-26T03:51:37;76.80;;;40.33;;
31808;SDS011;18379;48.208;-1.518;2023-01-26T03:56:56;77.40;;;41.90;;
31808;SDS011;18379;48.208;-1.518;2023-01-26T04:01:57;84.10;;;42.20;;
31808;SDS011;18379;48.208;-1.518;2023-01-26T04:07:16;61.43;;;36.53;;
31808;SDS011;18379;48.208;-1.518;2023-01-26T04:12:36;70.93;;;40.47;;
31808;SDS011;18379;48.208;-1.518;2023-01-26T04:17:36;67.77;;;36.97;;
31808;SDS011;18379;48.208;-1.518;2023-01-26T04:22:55;64.90;;;38.67;;
31808;SDS011;18379;48.208;-1.518;2023-01-26T04:27:56;59.33;;;36.83;;
31808;SDS011;18379;48.208;-1.518;2023-01-26T04:32:57;60.53;;;37.47;;
31808;SDS011;18379;48.208;-1.518;2023-01-26T04:37:58;56.20;;;35.53;;
31808;SDS011;18379;48.208;-1.518;2023-01-26T04:42:59;43.90;;;30.73;;
31808;SDS011;18379;48.208;-1.518;2023-01-26T04:48:00;52.30;;;34.33;;
31808;SDS011;18379;48.208;-1.518;2023-01-26T04:53:01;33.97;;;27.10;;
31808;SDS011;18379;48.208;-1.518;2023-01-26T04:58:01;42.30;;;31.93;;
31808;SDS011;18379;48.208;-1.518;2023-01-26T05:03:02;44.73;;;31.47;;
31808;SDS011;18379;48.208;-1.518;2023-01-26T05:08:04;37.30;;;29.93;;
31808;SDS011;18379;48.208;-1.518;2023-01-26T05:13:05;38.80;;;30.90;;
31808;SDS011;18379;48.208;-1.518;2023-01-26T05:18:06;45.13;;;36.20;;
31808;SDS011;18379;48.208;-1.518;2023-01-26T05:23:07;44.13;;;32.33;;
31808;SDS011;18379;48.208;-1.518;2023-01-26T05:28:08;42.97;;;35.40;;
31808;SDS011;18379;48.208;-1.518;2023-01-26T05:33:09;38.60;;;30.83;;
31808;SDS011;18379;48.208;-1.518;2023-01-26T05:38:10;33.93;;;28.47;;
31808;SDS011;18379;48.208;-1.518;2023-01-26T05:43:14;47.90;;;29.23;;
31808;SDS011;18379;48.208;-1.518;2023-01-26T05:48:15;30.47;;;27.17;;
31808;SDS011;18379;48.208;-1.518;2023-01-26T05:53:15;33.07;;;26.40;;
31808;SDS011;18379;48.208;-1.518;2023-01-26T05:58:16;27.57;;;24.60;;
31808;SDS011;18379;48.208;-1.518;2023-01-26T06:03:17;37.77;;;27.73;;
31808;SDS011;18379;48.208;-1.518;2023-01-26T06:08:18;34.37;;;27.00;;
31808;SDS011;18379;48.208;-1.518;2023-01-26T06:13:20;29.47;;;26.27;;
31808;SDS011;18379;48.208;-1.518;2023-01-26T06:18:24;27.47;;;24.67;;
31808;SDS011;18379;48.208;-1.518;2023-01-26T06:23:26;27.90;;;25.00;;
31808;SDS011;18379;48.208;-1.518;2023-01-26T06:28:29;27.27;;;24.57;;
31808;SDS011;18379;48.208;-1.518;2023-01-26T06:33:31;44.50;;;39.77;;
31808;SDS011;18379;48.208;-1.518;2023-01-26T06:38:36;60.57;;;44.63;;
31808;SDS011;18379;48.208;-1.518;2023-01-26T06:43:37;44.27;;;34.97;;
31808;SDS011;18379;48.208;-1.518;2023-01-26T06:48:38;36.27;;;32.43;;
31808;SDS011;18379;48.208;-1.518;2023-01-26T06:53:39;36.03;;;30.43;;
31808;SDS011;18379;48.208;-1.518;2023-01-26T06:58:43;38.47;;;29.70;;
31808;SDS011;18379;48.208;-1.518;2023-01-26T07:03:46;27.90;;;25.00;;
31808;SDS011;18379;48.208;-1.518;2023-01-26T07:08:48;35.03;;;27.30;;
31808;SDS011;18379;48.208;-1.518;2023-01-26T07:13:49;32.33;;;26.67;;
31808;SDS011;18379;48.208;-1.518;2023-01-26T07:18:51;36.67;;;28.23;;
31808;SDS011;18379;48.208;-1.518;2023-01-26T07:23:53;32.00;;;28.47;;
31808;SDS011;18379;48.208;-1.518;2023-01-26T07:28:54;31.77;;;26.70;;
31808;SDS011;18379;48.208;-1.518;2023-01-26T07:33:55;33.47;;;28.47;;
31808;SDS011;18379;48.208;-1.518;2023-01-26T07:38:56;29.63;;;26.53;;
31808;SDS011;18379;48.208;-1.518;2023-01-26T07:43:57;29.57;;;26.80;;
31808;SDS011;18379;48.208;-1.518;2023-01-26T07:48:58;27.77;;;24.97;;
31808;SDS011;18379;48.208;-1.518;2023-01-26T07:53:58;34.53;;;31.23;;
31808;SDS011;18379;48.208;-1.518;2023-01-26T07:58:59;24.27;;;22.20;;
31808;SDS011;18379;48.208;-1.518;2023-01-26T08:04:00;26.03;;;23.63;;
31808;SDS011;18379;48.208;-1.518;2023-01-26T08:09:01;25.00;;;22.93;;
31808;SDS011;18379;48.208;-1.518;2023-01-26T08:14:02;26.17;;;23.83;;
31808;SDS011;18379;48.208;-1.518;2023-01-26T08:19:03;24.50;;;22.50;;
31808;SDS011;18379;48.208;-1.518;2023-01-26T08:24:03;24.60;;;22.40;;
31808;SDS011;18379;48.208;-1.518;2023-01-26T08:29:05;25.10;;;23.00;;
31808;SDS011;18379;48.208;-1.518;2023-01-26T08:34:06;22.97;;;21.20;;
31808;SDS011;18379;48.208;-1.518;2023-01-26T08:39:07;22.33;;;20.73;;
31808;SDS011;18379;48.208;-1.518;2023-01-26T08:44:08;20.77;;;19.47;;
31808;SDS011;18379;48.208;-1.518;2023-01-26T08:49:09;23.47;;;21.67;;
31808;SDS011;18379;48.208;-1.518;2023-01-26T08:54:10;22.57;;;20.80;;
31808;SDS011;18379;48.208;-1.518;2023-01-26T08:59:11;21.70;;;19.90;;
31808;SDS011;18379;48.208;-1.518;2023-01-26T09:04:12;22.90;;;20.57;;
31808;SDS011;18379;48.208;-1.518;2023-01-26T09:09:13;21.47;;;20.07;;
31808;SDS011;18379;48.208;-1.518;2023-01-26T09:14:13;20.97;;;19.57;;
31808;SDS011;18379;48.208;-1.518;2023-01-26T09:19:14;24.63;;;22.37;;
31808;SDS011;18379;48.208;-1.518;2023-01-26T09:24:15;47.63;;;34.40;;
31808;SDS011;18379;48.208;-1.518;2023-01-26T09:29:16;52.47;;;34.27;;
31808;SDS011;18379;48.208;-1.518;2023-01-26T09:34:20;40.40;;;31.13;;
31808;SDS011;18379;48.208;-1.518;2023-01-26T09:39:21;38.97;;;32.60;;
31808;SDS011;18379;48.208;-1.518;2023-01-26T09:44:22;49.13;;;37.83;;
31808;SDS011;18379;48.208;-1.518;2023-01-26T09:49:25;51.70;;;40.77;;
31808;SDS011;18379;48.208;-1.518;2023-01-26T09:59:56;57.13;;;38.73;;
31808;SDS011;18379;48.208;-1.518;2023-01-26T10:05:01;36.40;;;29.20;;
31808;SDS011;18379;48.208;-1.518;2023-01-26T10:10:19;27.07;;;24.37;;
31808;SDS011;18379;48.208;-1.518;2023-01-26T10:20:30;24.23;;;21.83;;
31808;SDS011;18379;48.208;-1.518;2023-01-26T10:25:36;23.77;;;21.87;;
31808;SDS011;18379;48.208;-1.518;2023-01-26T10:30:39;22.67;;;20.77;;
31808;SDS011;18379;48.208;-1.518;2023-01-26T10:35:42;26.43;;;24.03;;
31808;SDS011;18379;48.208;-1.518;2023-01-26T10:40:43;20.80;;;19.20;;
31808;SDS011;18379;48.208;-1.518;2023-01-26T10:45:45;20.80;;;19.27;;
31808;SDS011;18379;48.208;-1.518;2023-01-26T10:50:47;21.97;;;19.97;;
31808;SDS011;18379;48.208;-1.518;2023-01-26T10:55:58;22.83;;;20.83;;
31808;SDS011;18379;48.208;-1.518;2023-01-26T11:01:11;21.97;;;20.13;;
31808;SDS011;18379;48.208;-1.518;2023-01-26T11:06:15;23.60;;;21.33;;
31808;SDS011;18379;48.208;-1.518;2023-01-26T11:11:24;24.63;;;22.10;;
31808;SDS011;18379;48.208;-1.518;2023-01-26T11:16:28;26.00;;;23.47;;
31808;SDS011;18379;48.208;-1.518;2023-01-26T11:21:49;27.07;;;22.37;;
31808;SDS011;18379;48.208;-1.518;2023-01-26T11:48:17;35.13;;;31.53;;
31808;SDS011;18379;48.208;-1.518;2023-01-26T11:59:17;41.27;;;34.37;;
31808;SDS011;18379;48.208;-1.518;2023-01-26T12:04:19;23.07;;;20.90;;
31808;SDS011;18379;48.208;-1.518;2023-01-26T12:14:50;23.23;;;21.13;;
31808;SDS011;18379;48.208;-1.518;2023-01-26T12:20:25;26.20;;;23.70;;
31808;SDS011;18379;48.208;-1.518;2023-01-26T12:25:48;22.17;;;20.07;;
31808;SDS011;18379;48.208;-1.518;2023-01-26T12:47:34;23.60;;;21.43;;
31808;SDS011;18379;48.208;-1.518;2023-01-26T12:58:03;25.83;;;23.60;;
31808;SDS011;18379;48.208;-1.518;2023-01-26T13:03:17;26.00;;;23.57;;
31808;SDS011;18379;48.208;-1.518;2023-01-26T13:13:30;26.83;;;24.27;;
31808;SDS011;18379;48.208;-1.518;2023-01-26T13:18:53;24.43;;;22.53;;
31808;SDS011;18379;48.208;-1.518;2023-01-26T13:23:57;39.33;;;33.03;;
31808;SDS011;18379;48.208;-1.518;2023-01-26T13:34:38;26.93;;;24.60;;
31808;SDS011;18379;48.208;-1.518;2023-01-26T13:39:43;31.23;;;28.33;;
31808;SDS011;18379;48.208;-1.518;2023-01-26T13:45:01;24.80;;;22.67;;
31808;SDS011;18379;48.208;-1.518;2023-01-26T13:50:32;33.30;;;30.47;;
31808;SDS011;18379;48.208;-1.518;2023-01-26T13:55:36;44.83;;;38.83;;
31808;SDS011;18379;48.208;-1.518;2023-01-26T14:00:41;36.40;;;32.83;;
31808;SDS011;18379;48.208;-1.518;2023-01-26T14:05:42;25.20;;;22.07;;
31808;SDS011;18379;48.208;-1.518;2023-01-26T14:10:50;22.17;;;20.37;;
31808;SDS011;18379;48.208;-1.518;2023-01-26T14:15:55;23.07;;;20.90;;
31808;SDS011;18379;48.208;-1.518;2023-01-26T14:21:00;25.70;;;23.10;;
31808;SDS011;18379;48.208;-1.518;2023-01-26T14:26:19;26.13;;;23.93;;
31808;SDS011;18379;48.208;-1.518;2023-01-26T14:31:28;24.20;;;22.20;;
31808;SDS011;18379;48.208;-1.518;2023-01-26T14:36:31;24.73;;;22.77;;
31808;SDS011;18379;48.208;-1.518;2023-01-26T14:41:38;25.87;;;23.53;;
31808;SDS011;18379;48.208;-1.518;2023-01-26T14:46:48;25.03;;;23.10;;
31808;SDS011;18379;48.208;-1.518;2023-01-26T14:51:58;29.43;;;26.47;;
31808;SDS011;18379;48.208;-1.518;2023-01-26T14:56:59;26.83;;;24.03;;
31808;SDS011;18379;48.208;-1.518;2023-01-26T15:02:01;35.83;;;32.10;;
31808;SDS011;18379;48.208;-1.518;2023-01-26T15:12:41;48.40;;;40.17;;
31808;SDS011;18379;48.208;-1.518;2023-01-26T15:17:42;43.40;;;34.80;;
31808;SDS011;18379;48.208;-1.518;2023-01-26T15:22:47;42.43;;;31.90;;
31808;SDS011;18379;48.208;-1.518;2023-01-26T15:27:56;36.40;;;31.07;;
31808;SDS011;18379;48.208;-1.518;2023-01-26T15:32:58;50.10;;;41.20;;
31808;SDS011;18379;48.208;-1.518;2023-01-26T15:48:12;37.70;;;33.80;;
31808;SDS011;18379;48.208;-1.518;2023-01-26T15:53:13;27.20;;;24.93;;
31808;SDS011;18379;48.208;-1.518;2023-01-26T15:58:15;47.07;;;34.60;;
31808;SDS011;18379;48.208;-1.518;2023-01-26T16:03:17;26.90;;;24.50;;
31808;SDS011;18379;48.208;-1.518;2023-01-26T16:08:19;23.10;;;20.93;;
31808;SDS011;18379;48.208;-1.518;2023-01-26T16:13:19;23.87;;;21.40;;
31808;SDS011;18379;48.208;-1.518;2023-01-26T16:18:20;23.37;;;21.20;;
31808;SDS011;18379;48.208;-1.518;2023-01-26T16:23:23;23.97;;;21.60;;
31808;SDS011;18379;48.208;-1.518;2023-01-26T16:28:26;25.07;;;22.20;;
31808;SDS011;18379;48.208;-1.518;2023-01-26T16:33:30;24.63;;;22.30;;
31808;SDS011;18379;48.208;-1.518;2023-01-26T16:38:32;26.10;;;23.40;;
31808;SDS011;18379;48.208;-1.518;2023-01-26T16:43:33;32.77;;;27.97;;
31808;SDS011;18379;48.208;-1.518;2023-01-26T16:48:38;25.43;;;23.20;;
31808;SDS011;18379;48.208;-1.518;2023-01-26T16:53:40;25.53;;;23.07;;
31808;SDS011;18379;48.208;-1.518;2023-01-26T16:58:41;31.03;;;24.77;;
31808;SDS011;18379;48.208;-1.518;2023-01-26T17:03:42;23.00;;;21.20;;
31808;SDS011;18379;48.208;-1.518;2023-01-26T17:08:43;24.20;;;22.00;;
31808;SDS011;18379;48.208;-1.518;2023-01-26T17:13:45;21.97;;;20.37;;
31808;SDS011;18379;48.208;-1.518;2023-01-26T17:18:46;25.33;;;22.97;;
31808;SDS011;18379;48.208;-1.518;2023-01-26T17:23:48;26.17;;;23.43;;
31808;SDS011;18379;48.208;-1.518;2023-01-26T17:28:53;25.13;;;22.77;;
31808;SDS011;18379;48.208;-1.518;2023-01-26T17:33:55;41.00;;;31.83;;
31808;SDS011;18379;48.208;-1.518;2023-01-26T17:38:56;44.47;;;36.00;;
31808;SDS011;18379;48.208;-1.518;2023-01-26T17:43:57;40.07;;;31.83;;
31808;SDS011;18379;48.208;-1.518;2023-01-26T17:48:58;37.57;;;32.93;;
31808;SDS011;18379;48.208;-1.518;2023-01-26T17:53:59;48.73;;;41.13;;
31808;SDS011;18379;48.208;-1.518;2023-01-26T17:59:00;44.93;;;37.70;;
31808;SDS011;18379;48.208;-1.518;2023-01-26T18:04:00;71.07;;;49.30;;
31808;SDS011;18379;48.208;-1.518;2023-01-26T18:09:01;29.40;;;26.40;;
31808;SDS011;18379;48.208;-1.518;2023-01-26T18:14:02;35.17;;;31.73;;
31808;SDS011;18379;48.208;-1.518;2023-01-26T18:19:04;47.03;;;38.17;;
31808;SDS011;18379;48.208;-1.518;2023-01-26T18:24:05;42.17;;;32.70;;
31808;SDS011;18379;48.208;-1.518;2023-01-26T18:29:06;40.33;;;34.67;;
31808;SDS011;18379;48.208;-1.518;2023-01-26T18:34:09;31.43;;;27.60;;
31808;SDS011;18379;48.208;-1.518;2023-01-26T18:39:11;29.90;;;26.83;;
31808;SDS011;18379;48.208;-1.518;2023-01-26T18:44:13;86.30;;;48.20;;
31808;SDS011;18379;48.208;-1.518;2023-01-26T18:49:14;21.37;;;19.60;;
31808;SDS011;18379;48.208;-1.518;2023-01-26T18:54:15;26.27;;;22.70;;
31808;SDS011;18379;48.208;-1.518;2023-01-26T18:59:17;57.40;;;36.43;;
31808;SDS011;18379;48.208;-1.518;2023-01-26T19:04:18;157.63;;;76.83;;
31808;SDS011;18379;48.208;-1.518;2023-01-26T19:09:19;85.00;;;47.63;;
31808;SDS011;18379;48.208;-1.518;2023-01-26T19:14:20;38.07;;;31.10;;
31808;SDS011;18379;48.208;-1.518;2023-01-26T19:19:22;27.33;;;24.87;;
31808;SDS011;18379;48.208;-1.518;2023-01-26T19:24:23;24.97;;;22.73;;
31808;SDS011;18379;48.208;-1.518;2023-01-26T19:29:24;21.30;;;19.60;;
31808;SDS011;18379;48.208;-1.518;2023-01-26T19:34:25;60.87;;;40.80;;
31808;SDS011;18379;48.208;-1.518;2023-01-26T19:39:30;41.30;;;33.73;;
31808;SDS011;18379;48.208;-1.518;2023-01-26T19:44:31;41.77;;;34.50;;
31808;SDS011;18379;48.208;-1.518;2023-01-26T19:49:32;33.77;;;30.20;;
31808;SDS011;18379;48.208;-1.518;2023-01-26T19:54:33;30.20;;;27.23;;
31808;SDS011;18379;48.208;-1.518;2023-01-26T19:59:34;29.73;;;26.53;;
31808;SDS011;18379;48.208;-1.518;2023-01-26T20:04:34;35.67;;;32.13;;
31808;SDS011;18379;48.208;-1.518;2023-01-26T20:09:35;34.40;;;30.83;;
31808;SDS011;18379;48.208;-1.518;2023-01-26T20:14:36;26.47;;;23.63;;
31808;SDS011;18379;48.208;-1.518;2023-01-26T20:19:37;29.63;;;26.63;;
31808;SDS011;18379;48.208;-1.518;2023-01-26T20:24:38;25.27;;;22.80;;
31808;SDS011;18379;48.208;-1.518;2023-01-26T20:29:39;26.33;;;23.73;;
31808;SDS011;18379;48.208;-1.518;2023-01-26T20:34:40;30.40;;;27.53;;
31808;SDS011;18379;48.208;-1.518;2023-01-26T20:39:41;26.13;;;23.53;;
31808;SDS011;18379;48.208;-1.518;2023-01-26T20:44:42;23.53;;;21.13;;
31808;SDS011;18379;48.208;-1.518;2023-01-26T20:49:44;35.30;;;29.07;;
31808;SDS011;18379;48.208;-1.518;2023-01-26T20:54:44;40.67;;;30.87;;
31808;SDS011;18379;48.208;-1.518;2023-01-26T20:59:45;22.10;;;20.33;;
31808;SDS011;18379;48.208;-1.518;2023-01-26T21:04:46;24.50;;;22.60;;
31808;SDS011;18379;48.208;-1.518;2023-01-26T21:09:47;26.57;;;21.83;;
31808;SDS011;18379;48.208;-1.518;2023-01-26T21:14:48;22.03;;;19.80;;
31808;SDS011;18379;48.208;-1.518;2023-01-26T21:19:49;27.93;;;22.93;;
31808;SDS011;18379;48.208;-1.518;2023-01-26T21:24:49;45.40;;;30.57;;
31808;SDS011;18379;48.208;-1.518;2023-01-26T21:29:50;22.50;;;20.50;;
31808;SDS011;18379;48.208;-1.518;2023-01-26T21:34:51;20.73;;;19.17;;
31808;SDS011;18379;48.208;-1.518;2023-01-26T21:39:52;21.53;;;19.50;;
31808;SDS011;18379;48.208;-1.518;2023-01-26T21:44:53;20.03;;;17.90;;
31808;SDS011;18379;48.208;-1.518;2023-01-26T21:50:12;28.43;;;25.43;;
31808;SDS011;18379;48.208;-1.518;2023-01-26T21:55:33;21.80;;;20.00;;
31808;SDS011;18379;48.208;-1.518;2023-01-26T22:00:33;25.43;;;22.77;;
31808;SDS011;18379;48.208;-1.518;2023-01-26T22:05:34;22.63;;;20.37;;
31808;SDS011;18379;48.208;-1.518;2023-01-26T22:10:36;25.03;;;21.63;;
31808;SDS011;18379;48.208;-1.518;2023-01-26T22:15:37;21.93;;;20.03;;
31808;SDS011;18379;48.208;-1.518;2023-01-26T22:20:40;25.33;;;23.20;;
31808;SDS011;18379;48.208;-1.518;2023-01-26T22:25:40;22.17;;;20.30;;
31808;SDS011;18379;48.208;-1.518;2023-01-26T22:30:41;25.93;;;23.37;;
31808;SDS011;18379;48.208;-1.518;2023-01-26T22:35:44;23.73;;;21.53;;
31808;SDS011;18379;48.208;-1.518;2023-01-26T22:40:44;33.17;;;28.03;;
31808;SDS011;18379;48.208;-1.518;2023-01-26T22:45:45;26.87;;;23.97;;
31808;SDS011;18379;48.208;-1.518;2023-01-26T22:50:46;27.03;;;20.90;;
31808;SDS011;18379;48.208;-1.518;2023-01-26T22:55:49;22.60;;;20.43;;
31808;SDS011;18379;48.208;-1.518;2023-01-26T23:00:56;23.47;;;20.87;;
31808;SDS011;18379;48.208;-1.518;2023-01-26T23:06:08;22.67;;;20.50;;
31808;SDS011;18379;48.208;-1.518;2023-01-26T23:16:18;20.07;;;18.47;;
31808;SDS011;18379;48.208;-1.518;2023-01-26T23:21:22;33.10;;;23.93;;
31808;SDS011;18379;48.208;-1.518;2023-01-26T23:26:24;20.83;;;18.93;;
31808;SDS011;18379;48.208;-1.518;2023-01-26T23:31:25;20.83;;;18.90;;
31808;SDS011;18379;48.208;-1.518;2023-01-26T23:36:26;19.80;;;18.27;;
31808;SDS011;18379;48.208;-1.518;2023-01-26T23:41:26;21.57;;;19.80;;
31808;SDS011;18379;48.208;-1.518;2023-01-26T23:46:27;25.57;;;23.20;;
31808;SDS011;18379;48.208;-1.518;2023-01-26T23:51:28;22.07;;;20.03;;
31808;SDS011;18379;48.208;-1.518;2023-01-26T23:56:29;24.63;;;22.07;;
